XBRLQ MMCU-XAMT
Flight info
| Callsign | XBRLQ |
|---|---|
| Flight time | N/A |
| Altitude | 8500 |
| Route | DCT XAMT |
| Aircraft | C172/L-S/C |
Departure
| Time | 2026-04-19 03:41 |
|---|---|
| Airport | General Roberto Fierro Villalobos International Airport (MMCU) |
Arrival
| Time | N/A |
|---|---|
| Airport | XAMT |
| Time | Latitude | Longitude | Altitude | Speed | Heading |
|---|---|---|---|---|---|
| 2026-04-19 03:02 | 28.70163 | -105.96861 | 4442 ft | 0 kts | 191° |
| 2026-04-19 03:23 | 28.70151 | -105.96862 | 4442 ft | 0 kts | 180° |
| 2026-04-19 03:27 | 28.70163 | -105.96861 | 4442 ft | 0 kts | 191° |
| 2026-04-19 03:34 | 28.70161 | -105.96861 | 4442 ft | 3 kts | 191° |
| 2026-04-19 03:34 | 28.70138 | -105.96828 | 4442 ft | 10 kts | 101° |
| 2026-04-19 03:35 | 28.70175 | -105.96756 | 4441 ft | 16 kts | 6° |
| 2026-04-19 03:35 | 28.70298 | -105.96737 | 4438 ft | 19 kts | 10° |
| 2026-04-19 03:35 | 28.70393 | -105.96716 | 4435 ft | 15 kts | 11° |
| 2026-04-19 03:35 | 28.70437 | -105.96654 | 4434 ft | 13 kts | 79° |
| 2026-04-19 03:36 | 28.70454 | -105.96548 | 4434 ft | 15 kts | 76° |
| 2026-04-19 03:36 | 28.70532 | -105.96456 | 4432 ft | 19 kts | 36° |
| 2026-04-19 03:36 | 28.70643 | -105.96354 | 4429 ft | 22 kts | 41° |
| 2026-04-19 03:36 | 28.70769 | -105.96252 | 4428 ft | 23 kts | 11° |
| 2026-04-19 03:37 | 28.70938 | -105.96213 | 4423 ft | 26 kts | 10° |
| 2026-04-19 03:37 | 28.71128 | -105.96174 | 4418 ft | 29 kts | 10° |
| 2026-04-19 03:37 | 28.71296 | -105.96136 | 4412 ft | 18 kts | 11° |
| 2026-04-19 03:37 | 28.71409 | -105.96088 | 4409 ft | 13 kts | 346° |
| 2026-04-19 03:38 | 28.71402 | -105.96114 | 4409 ft | 3 kts | 191° |
| 2026-04-19 03:38 | 28.71399 | -105.96115 | 4409 ft | 0 kts | 191° |
| 2026-04-19 03:39 | 28.71367 | -105.96122 | 4410 ft | 20 kts | 190° |
| 2026-04-19 03:39 | 28.71093 | -105.96181 | 4419 ft | 59 kts | 191° |
| 2026-04-19 03:40 | 28.70581 | -105.96289 | 4451 ft | 86 kts | 190° |
| 2026-04-19 03:40 | 28.69947 | -105.96424 | 4551 ft | 96 kts | 190° |
| 2026-04-19 03:40 | 28.69283 | -105.96544 | 4711 ft | 97 kts | 188° |
| 2026-04-19 03:40 | 28.68613 | -105.96663 | 4870 ft | 97 kts | 191° |
| 2026-04-19 03:41 | 28.67983 | -105.96892 | 5018 ft | 98 kts | 218° |
| 2026-04-19 03:41 | 28.67645 | -105.97568 | 5131 ft | 102 kts | 263° |
| 2026-04-19 03:41 | 28.67638 | -105.98363 | 5314 ft | 99 kts | 271° |
| 2026-04-19 03:41 | 28.67667 | -105.99157 | 5465 ft | 101 kts | 274° |
| 2026-04-19 03:42 | 28.67703 | -105.99959 | 5589 ft | 105 kts | 272° |
| 2026-04-19 03:42 | 28.67732 | -106.00806 | 5705 ft | 109 kts | 272° |
| 2026-04-19 03:42 | 28.67762 | -106.01668 | 5823 ft | 109 kts | 272° |
| 2026-04-19 03:42 | 28.67790 | -106.02528 | 5948 ft | 108 kts | 272° |
| 2026-04-19 03:43 | 28.67821 | -106.03386 | 6070 ft | 108 kts | 272° |
| 2026-04-19 03:43 | 28.67851 | -106.04232 | 6193 ft | 108 kts | 272° |
| 2026-04-19 03:43 | 28.67883 | -106.05086 | 6316 ft | 107 kts | 272° |
| 2026-04-19 03:43 | 28.67937 | -106.05930 | 6430 ft | 107 kts | 282° |
| 2026-04-19 03:44 | 28.68246 | -106.06718 | 6525 ft | 109 kts | 304° |
| 2026-04-19 03:44 | 28.68733 | -106.07378 | 6646 ft | 109 kts | 315° |
| 2026-04-19 03:44 | 28.69282 | -106.07970 | 6747 ft | 110 kts | 317° |
| 2026-04-19 03:44 | 28.69846 | -106.08555 | 6859 ft | 110 kts | 316° |
| 2026-04-19 03:45 | 28.70380 | -106.09183 | 6959 ft | 109 kts | 312° |
| 2026-04-19 03:45 | 28.70920 | -106.09785 | 7064 ft | 109 kts | 316° |
| 2026-04-19 03:45 | 28.71484 | -106.10355 | 7151 ft | 108 kts | 315° |
| 2026-04-19 03:45 | 28.71792 | -106.11155 | 7150 ft | 116 kts | 272° |
| 2026-04-19 03:46 | 28.71806 | -106.12041 | 7275 ft | 110 kts | 272° |
| 2026-04-19 03:46 | 28.71842 | -106.12901 | 7370 ft | 109 kts | 272° |
| 2026-04-19 03:46 | 28.71877 | -106.13761 | 7467 ft | 108 kts | 272° |
| 2026-04-19 03:46 | 28.71910 | -106.14615 | 7566 ft | 107 kts | 272° |
| 2026-04-19 03:47 | 28.71944 | -106.15467 | 7666 ft | 108 kts | 272° |
| 2026-04-19 03:47 | 28.71980 | -106.16323 | 7764 ft | 108 kts | 273° |
| 2026-04-19 03:47 | 28.72016 | -106.17163 | 7862 ft | 107 kts | 272° |
| 2026-04-19 03:47 | 28.72052 | -106.18007 | 7962 ft | 107 kts | 272° |
| 2026-04-19 03:48 | 28.72088 | -106.18846 | 8061 ft | 105 kts | 272° |
| 2026-04-19 03:48 | 28.72125 | -106.19671 | 8158 ft | 105 kts | 273° |
| 2026-04-19 03:48 | 28.72161 | -106.20504 | 8259 ft | 106 kts | 272° |
| 2026-04-19 03:48 | 28.72196 | -106.21334 | 8358 ft | 106 kts | 272° |
| 2026-04-19 03:49 | 28.72233 | -106.22191 | 8411 ft | 112 kts | 272° |
| 2026-04-19 03:49 | 28.72273 | -106.23098 | 8417 ft | 117 kts | 272° |
| 2026-04-19 03:49 | 28.72314 | -106.24038 | 8424 ft | 120 kts | 272° |
| 2026-04-19 03:49 | 28.72356 | -106.24996 | 8424 ft | 122 kts | 273° |
| 2026-04-19 03:50 | 28.72399 | -106.25971 | 8425 ft | 124 kts | 273° |
| 2026-04-19 03:50 | 28.72442 | -106.26956 | 8425 ft | 125 kts | 273° |
| 2026-04-19 03:50 | 28.72484 | -106.27938 | 8424 ft | 125 kts | 272° |
| 2026-04-19 03:50 | 28.72528 | -106.28935 | 8423 ft | 126 kts | 272° |
| 2026-04-19 03:51 | 28.72491 | -106.29912 | 8496 ft | 120 kts | 263° |
| 2026-04-19 03:51 | 28.72391 | -106.30843 | 8592 ft | 116 kts | 263° |
| 2026-04-19 03:51 | 28.72295 | -106.31735 | 8686 ft | 113 kts | 263° |
| 2026-04-19 03:51 | 28.72198 | -106.32622 | 8782 ft | 112 kts | 263° |
| 2026-04-19 03:52 | 28.72100 | -106.33499 | 8879 ft | 111 kts | 263° |
| 2026-04-19 03:52 | 28.72005 | -106.34370 | 8976 ft | 110 kts | 263° |
| 2026-04-19 03:52 | 28.71909 | -106.35229 | 9075 ft | 109 kts | 263° |
| 2026-04-19 03:52 | 28.71813 | -106.36085 | 9173 ft | 109 kts | 263° |
| 2026-04-19 03:53 | 28.71718 | -106.36941 | 9273 ft | 109 kts | 263° |
| 2026-04-19 03:53 | 28.71622 | -106.37787 | 9374 ft | 109 kts | 262° |
| 2026-04-19 03:53 | 28.71523 | -106.38641 | 9469 ft | 108 kts | 262° |
| 2026-04-19 03:53 | 28.71427 | -106.39487 | 9568 ft | 107 kts | 263° |
| 2026-04-19 03:54 | 28.71332 | -106.40332 | 9665 ft | 107 kts | 263° |
| 2026-04-19 03:54 | 28.71228 | -106.41203 | 9604 ft | 120 kts | 262° |
| 2026-04-19 03:54 | 28.71100 | -106.42168 | 9553 ft | 124 kts | 261° |
| 2026-04-19 03:54 | 28.70971 | -106.43119 | 9649 ft | 118 kts | 261° |
| 2026-04-19 03:55 | 28.70842 | -106.44094 | 9462 ft | 134 kts | 262° |
| 2026-04-19 03:55 | 28.70704 | -106.45140 | 9424 ft | 131 kts | 262° |
| 2026-04-19 03:55 | 28.70570 | -106.46155 | 9422 ft | 128 kts | 262° |
| 2026-04-19 03:55 | 28.70438 | -106.47154 | 9421 ft | 126 kts | 262° |
| 2026-04-19 03:56 | 28.70309 | -106.48131 | 9421 ft | 126 kts | 262° |
| 2026-04-19 03:56 | 28.70181 | -106.49121 | 9418 ft | 125 kts | 262° |
| 2026-04-19 03:56 | 28.70053 | -106.50101 | 9418 ft | 124 kts | 262° |
| 2026-04-19 03:56 | 28.69926 | -106.51076 | 9417 ft | 124 kts | 262° |
| 2026-04-19 03:57 | 28.69801 | -106.52036 | 9416 ft | 124 kts | 262° |
| 2026-04-19 03:57 | 28.69672 | -106.53010 | 9415 ft | 124 kts | 262° |
| 2026-04-19 03:57 | 28.69546 | -106.53979 | 9415 ft | 124 kts | 262° |
| 2026-04-19 03:57 | 28.69418 | -106.54949 | 9415 ft | 124 kts | 262° |
| 2026-04-19 03:58 | 28.69292 | -106.55919 | 9414 ft | 123 kts | 262° |
| 2026-04-19 03:58 | 28.69168 | -106.56878 | 9415 ft | 124 kts | 262° |
| 2026-04-19 03:58 | 28.69042 | -106.57849 | 9415 ft | 124 kts | 262° |
| 2026-04-19 03:58 | 28.68915 | -106.58824 | 9414 ft | 124 kts | 262° |
| 2026-04-19 03:59 | 28.68789 | -106.59797 | 9417 ft | 124 kts | 262° |
| 2026-04-19 03:59 | 28.68663 | -106.60772 | 9414 ft | 124 kts | 262° |
| 2026-04-19 03:59 | 28.68539 | -106.61730 | 9416 ft | 124 kts | 262° |
| 2026-04-19 03:59 | 28.68413 | -106.62703 | 9415 ft | 124 kts | 262° |
| 2026-04-19 04:00 | 28.68286 | -106.63674 | 9415 ft | 124 kts | 261° |
| 2026-04-19 04:00 | 28.68118 | -106.64649 | 9415 ft | 124 kts | 256° |
| 2026-04-19 04:00 | 28.67870 | -106.65574 | 9419 ft | 122 kts | 251° |
| 2026-04-19 04:00 | 28.67600 | -106.66508 | 9349 ft | 128 kts | 253° |
| 2026-04-19 04:01 | 28.67392 | -106.67482 | 9377 ft | 123 kts | 259° |
| 2026-04-19 04:01 | 28.67071 | -106.69314 | 9517 ft | 115 kts | 258° |
| 2026-04-19 04:01 | 28.66913 | -106.70204 | 9588 ft | 114 kts | 259° |
| 2026-04-19 04:02 | 28.66756 | -106.71083 | 9660 ft | 113 kts | 258° |
| 2026-04-19 04:02 | 28.66601 | -106.71957 | 9734 ft | 113 kts | 259° |
| 2026-04-19 04:02 | 28.66440 | -106.72870 | 9516 ft | 134 kts | 259° |
| 2026-04-19 04:02 | 28.66236 | -106.74011 | 9024 ft | 155 kts | 257° |
| 2026-04-19 04:03 | 28.65932 | -106.75127 | 8706 ft | 137 kts | 253° |
| 2026-04-19 04:03 | 28.65681 | -106.76047 | 8655 ft | 108 kts | 256° |
| 2026-04-19 04:03 | 28.65576 | -106.76858 | 8494 ft | 99 kts | 264° |
| 2026-04-19 04:03 | 28.65511 | -106.77711 | 8403 ft | 116 kts | 265° |
| 2026-04-19 04:04 | 28.65447 | -106.78634 | 8405 ft | 116 kts | 265° |
| 2026-04-19 04:04 | 28.65384 | -106.79537 | 8408 ft | 113 kts | 265° |
| 2026-04-19 04:04 | 28.65321 | -106.80431 | 8407 ft | 113 kts | 265° |
| 2026-04-19 04:04 | 28.65262 | -106.81252 | 8403 ft | 94 kts | 265° |
| 2026-04-19 04:05 | 28.65192 | -106.81965 | 8284 ft | 90 kts | 263° |
| 2026-04-19 04:05 | 28.65121 | -106.82668 | 8145 ft | 90 kts | 263° |
| 2026-04-19 04:05 | 28.65050 | -106.83377 | 8017 ft | 91 kts | 263° |
| 2026-04-19 04:05 | 28.64975 | -106.84101 | 7889 ft | 92 kts | 263° |
| 2026-04-19 04:06 | 28.64900 | -106.84820 | 7764 ft | 91 kts | 263° |
| 2026-04-19 04:06 | 28.64825 | -106.85531 | 7634 ft | 89 kts | 263° |
| 2026-04-19 04:06 | 28.64752 | -106.86225 | 7504 ft | 87 kts | 263° |
| 2026-04-19 04:06 | 28.64684 | -106.86908 | 7378 ft | 87 kts | 265° |
| 2026-04-19 04:07 | 28.64650 | -106.87571 | 7333 ft | 83 kts | 269° |
| 2026-04-19 04:07 | 28.64657 | -106.88236 | 7325 ft | 83 kts | 271° |
| 2026-04-19 04:07 | 28.64662 | -106.88907 | 7283 ft | 89 kts | 269° |
| 2026-04-19 04:07 | 28.64792 | -106.89597 | 7231 ft | 94 kts | 313° |
| 2026-04-19 04:08 | 28.65388 | -106.89828 | 7239 ft | 93 kts | 359° |
| 2026-04-19 04:08 | 28.66030 | -106.89809 | 7238 ft | 93 kts | 1° |
| 2026-04-19 04:08 | 28.66688 | -106.89785 | 7233 ft | 94 kts | 0° |
| 2026-04-19 04:08 | 28.67279 | -106.89571 | 7247 ft | 93 kts | 51° |
| 2026-04-19 04:09 | 28.67369 | -106.88869 | 7297 ft | 89 kts | 94° |
| 2026-04-19 04:09 | 28.67356 | -106.88166 | 7345 ft | 89 kts | 90° |
| 2026-04-19 04:09 | 28.67339 | -106.87473 | 7375 ft | 89 kts | 92° |
| 2026-04-19 04:09 | 28.67194 | -106.86819 | 7419 ft | 85 kts | 134° |
| 2026-04-19 04:10 | 28.66624 | -106.86641 | 7348 ft | 92 kts | 183° |
| 2026-04-19 04:10 | 28.65961 | -106.86660 | 7213 ft | 97 kts | 182° |
| 2026-04-19 04:10 | 28.65299 | -106.86686 | 7083 ft | 88 kts | 186° |
| 2026-04-19 04:10 | 28.65034 | -106.87158 | 6973 ft | 82 kts | 291° |
| 2026-04-19 04:11 | 28.65461 | -106.87534 | 6882 ft | 76 kts | 311° |
| 2026-04-19 04:11 | 28.65592 | -106.88108 | 6760 ft | 76 kts | 271° |
| 2026-04-19 04:11 | 28.65588 | -106.88701 | 6696 ft | 71 kts | 269° |
| 2026-04-19 04:11 | 28.65584 | -106.89282 | 6591 ft | 81 kts | 270° |
| 2026-04-19 04:12 | 28.65584 | -106.89858 | 6537 ft | 62 kts | 270° |
| 2026-04-19 04:12 | 28.65585 | -106.90255 | 6525 ft | 32 kts | 270° |
| 2026-04-19 04:12 | 28.65585 | -106.90480 | 6529 ft | 20 kts | 268° |
| 2026-04-19 04:12 | 28.65544 | -106.90579 | 6530 ft | 10 kts | 220° |
| 2026-04-19 04:13 | 28.65518 | -106.90630 | 6531 ft | 7 kts | 301° |
| 2026-04-19 04:13 | 28.65532 | -106.90639 | 6531 ft | 0 kts | 358° |